createdAt,value
2023-02-08T00:01:24.251Z,102754.69
2023-02-08T00:03:53.052Z,102751.09
2023-02-08T00:06:21.634Z,102745.22
2023-02-08T00:08:49.543Z,102743.41
2023-02-08T00:11:18.015Z,102747.44
2023-02-08T00:13:45.932Z,102746.03
2023-02-08T00:16:15.315Z,102749.28
2023-02-08T00:18:43.542Z,102746.81
2023-02-08T00:21:16.310Z,102753.25
2023-02-08T00:23:44.868Z,102762.78
2023-02-08T00:26:13.374Z,102768.25
2023-02-08T00:28:42.564Z,102766.88
2023-02-08T00:31:11.305Z,102765.84
2023-02-08T00:33:39.320Z,102761.38
2023-02-08T00:36:09.089Z,102761.59
2023-02-08T00:38:37.060Z,102764.44
2023-02-08T00:41:06.299Z,102764.78
2023-02-08T00:43:34.661Z,102767.88
2023-02-08T00:46:04.484Z,102768.41
2023-02-08T00:48:33.549Z,102772.44
2023-02-08T00:51:07.776Z,102778.88
2023-02-08T00:53:37.400Z,102783.84
2023-02-08T00:56:08.369Z,102793.50
2023-02-08T00:58:36.946Z,102792.13
2023-02-08T01:01:06.274Z,102786.78
2023-02-08T01:03:36.558Z,102782.78
2023-02-08T01:06:08.226Z,102788.66
2023-02-08T01:08:36.807Z,102795.22
2023-02-08T01:11:07.347Z,102797.53
2023-02-08T01:13:36.712Z,102794.91
2023-02-08T01:16:10.087Z,102791.06
2023-02-08T01:18:39.868Z,102790.78
2023-02-08T01:21:13.661Z,102798.44
2023-02-08T01:23:42.817Z,102800.25
2023-02-08T01:26:15.169Z,102797.84
2023-02-08T01:28:44.199Z,102797.63
2023-02-08T01:31:15.684Z,102799.84
2023-02-08T01:33:43.667Z,102798.22
2023-02-08T01:36:12.399Z,102804.53
2023-02-08T01:38:44.286Z,102806.13
2023-02-08T01:41:35.456Z,102802.44
2023-02-08T01:44:12.190Z,102803.09
2023-02-08T01:46:51.358Z,102802.84
2023-02-08T01:49:36.548Z,102796.78
2023-02-08T01:52:14.748Z,102801.22
2023-02-08T01:54:51.986Z,102797.13
2023-02-08T01:57:21.388Z,102786.84
2023-02-08T01:59:59.364Z,102788.66
2023-02-08T02:02:28.283Z,102785.91
2023-02-08T02:04:56.497Z,102784.94
2023-02-08T02:07:28.904Z,102792.47
2023-02-08T02:10:04.431Z,102786.81
2023-02-08T02:12:34.025Z,102792.09
2023-02-08T02:15:03.742Z,102790.28
2023-02-08T02:17:32.036Z,102778.69
2023-02-08T02:20:24.818Z,102779.28
2023-02-08T02:23:32.056Z,102776.25
2023-02-08T02:26:25.266Z,102780.31
2023-02-08T02:28:59.570Z,102776.03
2023-02-08T02:32:05.606Z,102781.94
2023-02-08T02:34:47.006Z,102773.41
2023-02-08T02:37:53.508Z,102767.72
2023-02-08T02:40:42.636Z,102761.19
2023-02-08T02:43:38.776Z,102756.72
2023-02-08T02:46:24.785Z,102760.13
2023-02-08T02:49:09.951Z,102760.56
2023-02-08T02:51:46.691Z,102752.06
2023-02-08T02:54:17.815Z,102760.56
2023-02-08T02:56:50.602Z,102763.97
2023-02-08T02:59:20.341Z,102768.50
2023-02-08T03:01:49.174Z,102773.16
2023-02-08T03:04:20.304Z,102774.19
2023-02-08T03:07:13.408Z,102773.56
2023-02-08T03:09:56.346Z,102783.72
2023-02-08T03:12:39.864Z,102781.31
2023-02-08T03:15:13.538Z,102783.97
2023-02-08T03:18:17.325Z,102785.75
2023-02-08T03:21:09.683Z,102791.03
2023-02-08T03:24:04.987Z,102793.69
2023-02-08T03:26:57.867Z,102797.34
2023-02-08T03:29:48.478Z,102804.06
2023-02-08T03:32:42.064Z,102794.50
2023-02-08T03:35:37.711Z,102801.63
2023-02-08T03:38:13.712Z,102809.16
2023-02-08T03:40:49.835Z,102806.09
2023-02-08T03:43:43.315Z,102805.69
2023-02-08T03:47:02.913Z,102801.25
2023-02-08T03:49:36.811Z,102808.72
2023-02-08T03:52:09.437Z,102805.47
2023-02-08T03:54:49.386Z,102799.41
2023-02-08T03:57:25.937Z,102797.38
2023-02-08T04:00:08.693Z,102791.50
2023-02-08T04:02:55.715Z,102790.66
2023-02-08T04:05:24.745Z,102800.22
2023-02-08T04:07:53.426Z,102800.00
2023-02-08T04:10:21.488Z,102801.00
2023-02-08T04:12:49.953Z,102804.03
2023-02-08T04:15:18.524Z,102805.25
2023-02-08T04:17:46.764Z,102804.59
2023-02-08T04:20:14.648Z,102804.34
2023-02-08T04:22:46.082Z,102803.97
2023-02-08T04:29:44.445Z,102793.19
2023-02-08T04:32:13.646Z,102792.72
2023-02-08T04:34:42.008Z,102787.94
2023-02-08T04:37:10.248Z,102779.91
2023-02-08T04:39:38.910Z,102785.97
2023-02-08T04:42:07.169Z,102788.63
2023-02-08T04:44:36.044Z,102785.38
2023-02-08T04:47:04.320Z,102783.38
2023-02-08T04:49:32.782Z,102775.84
2023-02-08T04:52:00.751Z,102779.13
2023-02-08T04:54:29.082Z,102781.72
2023-02-08T04:56:57.102Z,102792.69
2023-02-08T04:59:25.404Z,102780.53
2023-02-08T05:01:53.501Z,102791.25
2023-02-08T05:04:21.838Z,102794.09
2023-02-08T05:06:49.932Z,102794.66
2023-02-08T05:09:18.386Z,102795.88
2023-02-08T05:11:46.379Z,102794.06
2023-02-08T05:14:14.758Z,102793.66
2023-02-08T05:16:42.714Z,102782.69
2023-02-08T05:19:14.706Z,102795.09
2023-02-08T05:21:42.739Z,102793.38
2023-02-08T05:24:12.923Z,102798.03
2023-02-08T05:26:41.547Z,102799.28
2023-02-08T05:29:10.967Z,102790.47
2023-02-08T05:31:39.157Z,102795.59
2023-02-08T05:34:07.580Z,102800.59
2023-02-08T05:36:35.626Z,102802.91
2023-02-08T05:39:04.210Z,102800.66
2023-02-08T05:41:32.579Z,102805.28
2023-02-08T05:44:00.819Z,102808.22
2023-02-08T05:46:28.839Z,102803.09
2023-02-08T05:48:57.056Z,102808.47
2023-02-08T05:51:24.940Z,102808.69
2023-02-08T05:53:53.096Z,102808.19
2023-02-08T05:56:21.547Z,102797.16
2023-02-08T05:58:49.789Z,102800.94
2023-02-08T06:01:18.826Z,102806.44
2023-02-08T06:03:47.024Z,102816.00
2023-02-08T06:06:15.148Z,102814.94
2023-02-08T06:08:43.498Z,102816.00
2023-02-08T06:11:11.501Z,102820.06
2023-02-08T06:13:40.130Z,102808.25
2023-02-08T06:16:08.579Z,102809.00
2023-02-08T06:18:36.850Z,102804.03
2023-02-08T06:21:05.050Z,102817.00
2023-02-08T06:23:33.452Z,102816.25
2023-02-08T06:26:01.368Z,102809.59
2023-02-08T06:28:29.682Z,102815.69
2023-02-08T06:30:57.561Z,102810.38
2023-02-08T06:33:25.731Z,102809.69
2023-02-08T06:35:53.990Z,102808.34
2023-02-08T06:38:22.667Z,102816.00
2023-02-08T06:40:50.968Z,102808.22
2023-02-08T06:43:19.542Z,102811.72
2023-02-08T06:45:47.823Z,102816.25
2023-02-08T06:48:16.237Z,102809.13
2023-02-08T06:50:44.471Z,102815.09
2023-02-08T06:53:12.894Z,102812.84
2023-02-08T06:55:40.998Z,102812.09
2023-02-08T06:58:10.050Z,102816.25
2023-02-08T07:00:39.478Z,102816.38
2023-02-08T07:03:09.440Z,102820.69
2023-02-08T07:05:37.922Z,102818.75
2023-02-08T07:08:07.186Z,102826.53
2023-02-08T07:10:35.391Z,102829.66
2023-02-08T07:13:03.775Z,102834.41
2023-02-08T07:15:32.374Z,102826.66
2023-02-08T07:18:00.911Z,102829.75
2023-02-08T07:20:29.118Z,102826.13
2023-02-08T07:22:57.772Z,102825.44
2023-02-08T07:25:25.865Z,102823.03
2023-02-08T07:27:54.104Z,102820.03
2023-02-08T07:30:22.054Z,102822.97
2023-02-08T07:32:50.293Z,102826.50
2023-02-08T07:35:18.566Z,102822.78
2023-02-08T07:37:47.126Z,102826.03
2023-02-08T07:40:15.171Z,102828.28
2023-02-08T07:42:43.421Z,102825.66
2023-02-08T07:45:26.357Z,102830.81
2023-02-08T07:47:54.715Z,102827.19
2023-02-08T07:50:22.640Z,102833.63
2023-02-08T07:52:50.837Z,102833.47
2023-02-08T07:55:20.788Z,102835.50
2023-02-08T07:57:50.497Z,102838.31
2023-02-08T08:00:19.637Z,102845.84
2023-02-08T08:02:51.009Z,102834.47
2023-02-08T08:05:19.194Z,102835.09
2023-02-08T08:07:47.664Z,102836.53
2023-02-08T08:10:15.547Z,102844.22
2023-02-08T08:12:44.156Z,102847.84
2023-02-08T08:15:12.211Z,102836.22
2023-02-08T08:17:42.521Z,102831.50
2023-02-08T08:20:11.917Z,102834.22
2023-02-08T08:22:40.268Z,102842.41
2023-02-08T08:25:08.451Z,102843.97
2023-02-08T08:27:36.788Z,102839.84
2023-02-08T08:30:11.378Z,102844.03
2023-02-08T08:32:40.129Z,102836.59
2023-02-08T08:35:09.218Z,102850.34
2023-02-08T08:37:38.032Z,102846.97
2023-02-08T08:40:08.058Z,102838.03
2023-02-08T08:42:36.867Z,102840.38
2023-02-08T08:45:05.036Z,102839.94
2023-02-08T08:47:33.727Z,102829.72
2023-02-08T08:50:01.977Z,102842.34
2023-02-08T08:52:30.300Z,102845.13
2023-02-08T08:54:58.405Z,102842.03
2023-02-08T08:57:26.708Z,102838.97
2023-02-08T08:59:54.597Z,102838.69
2023-02-08T09:02:23.275Z,102840.25
2023-02-08T09:04:51.405Z,102841.00
2023-02-08T09:07:19.718Z,102840.88
2023-02-08T09:09:48.274Z,102845.28
2023-02-08T09:12:16.632Z,102851.75
2023-02-08T09:14:45.163Z,102843.91
2023-02-08T09:17:13.545Z,102842.69
2023-02-08T09:19:42.890Z,102846.94
2023-02-08T09:22:11.254Z,102851.69
2023-02-08T09:24:40.485Z,102853.63
2023-02-08T09:27:08.736Z,102855.34
2023-02-08T09:29:36.758Z,102850.47
2023-02-08T09:32:05.198Z,102853.72
2023-02-08T09:34:33.250Z,102856.38
2023-02-08T09:37:01.567Z,102848.22
2023-02-08T09:39:29.513Z,102847.63
2023-02-08T09:42:16.678Z,102858.94
2023-02-08T09:45:03.306Z,102857.91
2023-02-08T09:47:36.716Z,102855.56
2023-02-08T09:50:20.329Z,102861.91
2023-02-08T09:53:36.339Z,102865.31
2023-02-08T09:56:12.131Z,102862.94
2023-02-08T09:58:46.891Z,102866.75
2023-02-08T10:01:28.468Z,102869.97
2023-02-08T10:04:14.618Z,102880.25
2023-02-08T10:06:42.588Z,102877.41
2023-02-08T10:09:14.856Z,102878.72
2023-02-08T10:12:01.204Z,102890.16
2023-02-08T10:15:03.626Z,102883.03
2023-02-08T10:17:43.787Z,102890.97
2023-02-08T10:20:36.508Z,102878.81
2023-02-08T10:23:19.872Z,102892.63
2023-02-08T10:26:07.234Z,102888.97
2023-02-08T10:29:25.912Z,102893.19
2023-02-08T10:31:54.118Z,102888.31
2023-02-08T10:34:46.110Z,102892.75
2023-02-08T10:37:28.360Z,102891.63
2023-02-08T10:40:00.950Z,102886.53
2023-02-08T10:42:36.776Z,102880.88
2023-02-08T10:45:24.664Z,102886.94
2023-02-08T10:48:02.488Z,102882.50
2023-02-08T10:50:47.621Z,102887.81
2023-02-08T10:53:23.492Z,102880.91
2023-02-08T10:55:59.190Z,102883.72
2023-02-08T10:58:30.942Z,102874.88
2023-02-08T11:01:04.294Z,102874.31
2023-02-08T11:03:37.982Z,102875.09
2023-02-08T11:06:25.384Z,102868.63
2023-02-08T11:08:59.604Z,102865.63
2023-02-08T11:11:29.914Z,102869.59
2023-02-08T11:14:15.131Z,102874.38
2023-02-08T11:16:57.047Z,102858.91
2023-02-08T11:19:46.502Z,102861.94
2023-02-08T11:22:21.201Z,102864.88
2023-02-08T11:25:06.321Z,102856.09
2023-02-08T11:27:45.186Z,102855.59
2023-02-08T11:30:18.570Z,102841.41
2023-02-08T11:33:15.969Z,102840.31
2023-02-08T11:36:03.139Z,102841.69
2023-02-08T11:38:36.235Z,102841.38
2023-02-08T11:41:16.251Z,102839.75
2023-02-08T11:43:52.011Z,102839.50
2023-02-08T11:46:28.666Z,102835.22
2023-02-08T11:49:04.830Z,102836.28
2023-02-08T11:51:36.503Z,102817.22
2023-02-08T11:54:06.309Z,102834.41
2023-02-08T11:56:35.700Z,102823.72
2023-02-08T11:59:15.537Z,102823.44
2023-02-08T12:01:44.336Z,102812.59
2023-02-08T12:04:15.045Z,102815.13
2023-02-08T12:07:01.866Z,102811.66
2023-02-08T12:09:57.486Z,102807.72
2023-02-08T12:12:25.840Z,102794.28
2023-02-08T12:14:53.915Z,102798.56
2023-02-08T12:17:48.399Z,102801.94
2023-02-08T12:20:23.546Z,102793.88
2023-02-08T12:23:03.056Z,102801.28
2023-02-08T12:25:57.811Z,102793.69
2023-02-08T12:28:36.254Z,102786.16
2023-02-08T12:31:19.304Z,102781.09
2023-02-08T12:34:02.257Z,102783.81
2023-02-08T12:37:18.974Z,102797.69
2023-02-08T12:40:34.946Z,102781.03
2023-02-08T12:43:39.924Z,102773.91
2023-02-08T12:46:26.345Z,102775.16
2023-02-08T12:49:07.294Z,102782.78
2023-02-08T12:52:05.527Z,102771.78
2023-02-08T12:54:50.696Z,102770.63
2023-02-08T12:57:22.864Z,102763.63
2023-02-08T12:59:57.833Z,102761.91
2023-02-08T13:02:29.281Z,102763.19
2023-02-08T13:05:02.996Z,102765.22
2023-02-08T13:07:40.545Z,102767.19
2023-02-08T13:10:29.766Z,102769.38
2023-02-08T13:13:06.587Z,102758.75
2023-02-08T13:16:01.021Z,102756.47
2023-02-08T13:18:40.369Z,102754.81
2023-02-08T13:21:22.697Z,102754.47
2023-02-08T13:23:53.290Z,102760.00
2023-02-08T13:26:35.759Z,102753.56
2023-02-08T13:29:05.358Z,102751.94
2023-02-08T13:31:47.191Z,102760.22
2023-02-08T13:34:36.198Z,102743.41
2023-02-08T13:37:24.715Z,102753.28
2023-02-08T13:40:08.750Z,102745.53
2023-02-08T13:42:49.299Z,102749.03
2023-02-08T13:45:31.249Z,102750.88
2023-02-08T13:48:02.520Z,102747.69
2023-02-08T13:50:39.772Z,102745.53
2023-02-08T13:53:08.118Z,102751.25
2023-02-08T13:55:51.104Z,102739.81
2023-02-08T13:58:43.130Z,102749.66
2023-02-08T14:01:19.260Z,102748.28
2023-02-08T14:04:07.525Z,102741.78
2023-02-08T14:06:43.979Z,102740.66
2023-02-08T14:09:33.505Z,102734.66
2023-02-08T14:12:12.477Z,102725.53
2023-02-08T14:14:40.640Z,102729.34
2023-02-08T14:17:20.749Z,102732.13
2023-02-08T14:20:02.581Z,102731.97
2023-02-08T14:22:48.280Z,102740.53
2023-02-08T14:25:16.070Z,102725.47
2023-02-08T14:27:55.436Z,102731.75
2023-02-08T14:30:51.119Z,102751.44
2023-02-08T14:33:25.857Z,102749.16
2023-02-08T14:36:03.564Z,102753.47
2023-02-08T14:38:54.715Z,102753.72
2023-02-08T14:42:00.257Z,102741.81
2023-02-08T14:44:43.574Z,102758.25
2023-02-08T14:47:26.931Z,102747.63
2023-02-08T14:50:13.660Z,102744.81
2023-02-08T14:52:56.406Z,102746.88
2023-02-08T14:55:28.157Z,102748.06
2023-02-08T14:57:58.390Z,102749.13
2023-02-08T15:00:34.156Z,102751.56
2023-02-08T15:03:05.299Z,102753.28
2023-02-08T15:05:42.148Z,102757.94
2023-02-08T15:08:11.148Z,102748.34
2023-02-08T15:10:45.316Z,102751.66
2023-02-08T15:13:19.071Z,102761.16
2023-02-08T15:15:53.646Z,102758.88
2023-02-08T15:18:33.230Z,102748.13
2023-02-08T15:21:19.288Z,102758.84
2023-02-08T15:24:08.173Z,102753.03
2023-02-08T15:26:36.407Z,102755.97
2023-02-08T15:29:04.388Z,102755.28
2023-02-08T15:31:34.311Z,102743.59
2023-02-08T15:34:03.276Z,102745.44
2023-02-08T15:36:35.036Z,102749.47
2023-02-08T15:39:24.823Z,102750.03
2023-02-08T15:41:58.480Z,102750.59
2023-02-08T15:44:30.604Z,102744.59
2023-02-08T15:47:16.498Z,102753.47
2023-02-08T15:49:50.068Z,102751.56
2023-02-08T15:52:21.766Z,102744.81
2023-02-08T15:54:50.120Z,102748.31
2023-02-08T15:57:44.478Z,102755.63
2023-02-08T16:00:44.412Z,102749.50
2023-02-08T16:03:25.882Z,102751.28
2023-02-08T16:06:02.985Z,102749.31
2023-02-08T16:08:34.566Z,102751.47
2023-02-08T16:11:12.965Z,102754.09
2023-02-08T16:13:48.235Z,102758.06
2023-02-08T16:16:26.762Z,102757.59
2023-02-08T16:19:04.281Z,102759.81
2023-02-08T16:21:38.616Z,102754.19
2023-02-08T16:24:12.916Z,102761.75
2023-02-08T16:26:45.095Z,102763.03
2023-02-08T16:29:40.026Z,102765.69
2023-02-08T16:32:20.902Z,102765.31
2023-02-08T16:34:49.360Z,102764.59
2023-02-08T16:37:35.538Z,102765.84
2023-02-08T16:40:40.686Z,102770.06
2023-02-08T16:43:19.143Z,102774.78
2023-02-08T16:46:21.672Z,102777.25
2023-02-08T16:48:57.594Z,102782.94
2023-02-08T16:51:29.004Z,102783.56
2023-02-08T16:54:02.914Z,102788.28
2023-02-08T16:56:31.299Z,102794.41
2023-02-08T16:58:59.290Z,102785.88
2023-02-08T17:01:28.719Z,102795.91
2023-02-08T17:03:56.766Z,102795.00
2023-02-08T17:06:29.995Z,102799.94
2023-02-08T17:08:59.974Z,102801.41
2023-02-08T17:11:29.585Z,102809.88
2023-02-08T17:13:58.863Z,102799.38
2023-02-08T17:16:29.737Z,102812.50
2023-02-08T17:18:58.837Z,102819.78
2023-02-08T17:21:29.350Z,102815.56
2023-02-08T17:23:57.986Z,102825.66
2023-02-08T17:26:34.630Z,102829.13
2023-02-08T17:29:02.837Z,102832.00
2023-02-08T17:31:31.786Z,102839.75
2023-02-08T17:34:04.633Z,102841.78
2023-02-08T17:36:35.425Z,102841.47
2023-02-08T17:39:05.570Z,102839.56
2023-02-08T17:41:34.046Z,102842.00
2023-02-08T17:44:02.163Z,102846.94
2023-02-08T17:46:33.622Z,102842.91
2023-02-08T17:49:02.038Z,102844.50
2023-02-08T17:51:31.260Z,102836.34
2023-02-08T17:53:59.554Z,102833.22
2023-02-08T17:56:28.846Z,102836.13
2023-02-08T17:58:56.910Z,102841.06
2023-02-08T18:01:27.400Z,102842.13
2023-02-08T18:03:55.658Z,102848.03
2023-02-08T18:06:25.183Z,102847.22
2023-02-08T18:08:54.978Z,102860.56
2023-02-08T18:11:24.353Z,102848.00
2023-02-08T18:13:54.003Z,102854.03
2023-02-08T18:16:25.341Z,102859.50
2023-02-08T18:18:59.372Z,102857.97
2023-02-08T18:21:27.799Z,102862.06
2023-02-08T18:23:55.900Z,102865.94
2023-02-08T18:26:25.368Z,102865.34
2023-02-08T18:28:53.618Z,102864.56
2023-02-08T18:31:22.552Z,102868.50
2023-02-08T18:33:51.231Z,102861.09
2023-02-08T18:36:21.012Z,102868.16
2023-02-08T18:38:51.868Z,102865.56
2023-02-08T18:41:26.376Z,102877.41
2023-02-08T18:43:56.706Z,102876.34
2023-02-08T18:46:26.951Z,102873.72
2023-02-08T18:48:55.251Z,102882.22
2023-02-08T18:51:49.064Z,102864.91
2023-02-08T18:54:18.512Z,102867.59
2023-02-08T18:56:47.203Z,102876.31
2023-02-08T18:59:15.026Z,102865.31
2023-02-08T19:01:43.377Z,102870.59
2023-02-08T19:04:11.207Z,102871.22
2023-02-08T19:06:39.474Z,102877.25
2023-02-08T19:09:08.293Z,102878.78
2023-02-08T19:11:39.194Z,102878.53
2023-02-08T19:14:11.492Z,102889.53
2023-02-08T19:16:40.473Z,102878.53
2023-02-08T19:19:08.504Z,102886.91
2023-02-08T19:21:37.368Z,102888.69
2023-02-08T19:24:06.129Z,102896.53
2023-02-08T19:26:39.991Z,102893.72
2023-02-08T19:29:14.074Z,102894.91
2023-02-08T19:31:43.667Z,102902.69
2023-02-08T19:34:12.704Z,102908.84
2023-02-08T19:36:45.192Z,102910.75
2023-02-08T19:39:16.530Z,102902.94
2023-02-08T19:41:45.759Z,102911.19
2023-02-08T19:44:17.623Z,102915.53
2023-02-08T19:46:51.840Z,102909.88
2023-02-08T19:49:19.713Z,102910.31
2023-02-08T19:51:48.004Z,102911.22
2023-02-08T19:54:18.162Z,102913.06
2023-02-08T19:56:47.535Z,102904.66
2023-02-08T19:59:21.112Z,102914.84
2023-02-08T20:01:49.703Z,102918.16
2023-02-08T20:04:17.831Z,102917.75
2023-02-08T20:06:46.457Z,102921.44
2023-02-08T20:09:16.507Z,102921.44
2023-02-08T20:11:56.399Z,102934.66
2023-02-08T20:14:26.126Z,102929.97
2023-02-08T20:16:54.633Z,102930.19
2023-02-08T20:19:22.645Z,102932.97
2023-02-08T20:21:50.790Z,102923.78
2023-02-08T20:24:19.196Z,102926.28
2023-02-08T20:26:48.327Z,102930.19
2023-02-08T20:29:17.126Z,102932.44
2023-02-08T20:31:48.132Z,102926.72
2023-02-08T20:34:18.953Z,102928.38
2023-02-08T20:37:07.348Z,102935.88
2023-02-08T20:39:37.549Z,102934.31
2023-02-08T20:42:06.334Z,102945.69
2023-02-08T20:44:34.538Z,102942.81
2023-02-08T20:47:02.622Z,102945.47
2023-02-08T20:49:32.642Z,102946.50
2023-02-08T20:52:00.795Z,102946.50
2023-02-08T20:54:29.124Z,102945.88
2023-02-08T20:56:57.534Z,102948.50
2023-02-08T20:59:26.340Z,102954.22
2023-02-08T21:01:54.859Z,102957.47
2023-02-08T21:04:23.785Z,102966.97
2023-02-08T21:06:52.481Z,102961.31
2023-02-08T21:09:21.179Z,102968.84
2023-02-08T21:11:49.874Z,102972.88
2023-02-08T21:14:21.066Z,102967.84
2023-02-08T21:16:52.007Z,102974.94
2023-02-08T21:19:20.933Z,102975.94
2023-02-08T21:21:54.244Z,102969.84
2023-02-08T21:24:24.132Z,102980.19
2023-02-08T21:26:56.572Z,102978.56
2023-02-08T21:29:25.362Z,102965.16
2023-02-08T21:31:54.828Z,102970.84
2023-02-08T21:34:23.339Z,102977.53
2023-02-08T21:36:51.350Z,102976.94
2023-02-08T21:39:19.899Z,102965.41
2023-02-08T21:41:48.513Z,102968.44
2023-02-08T21:44:16.818Z,102960.47
2023-02-08T21:46:44.884Z,102975.31
2023-02-08T21:49:31.839Z,102975.94
2023-02-08T21:52:19.200Z,102982.84
2023-02-08T21:54:53.303Z,102980.00
2023-02-08T21:57:26.018Z,102979.34
2023-02-08T21:59:58.842Z,102980.19
2023-02-08T22:02:29.768Z,102983.03
2023-02-08T22:05:21.133Z,102994.00
2023-02-08T22:07:54.707Z,102989.13
2023-02-08T22:10:26.073Z,102995.63
2023-02-08T22:12:55.674Z,102993.59
2023-02-08T22:15:28.228Z,102990.34
2023-02-08T22:17:58.873Z,102995.00
2023-02-08T22:20:27.653Z,102993.38
2023-02-08T22:22:55.811Z,102983.03
2023-02-08T22:25:24.479Z,102989.50
2023-02-08T22:27:52.540Z,102977.94
2023-02-08T22:30:21.393Z,102987.28
2023-02-08T22:32:49.823Z,102985.47
2023-02-08T22:35:19.093Z,102980.16
2023-02-08T22:37:47.123Z,102978.38
2023-02-08T22:40:15.720Z,102969.81
2023-02-08T22:42:43.680Z,102987.09
2023-02-08T22:45:12.799Z,102974.50
2023-02-08T22:47:40.760Z,102980.41
2023-02-08T22:50:10.318Z,102980.19
2023-02-08T22:52:38.515Z,102981.59
2023-02-08T22:55:07.970Z,102981.41
2023-02-08T22:57:36.712Z,102979.19
2023-02-08T23:00:07.872Z,102975.56
2023-02-08T23:02:36.168Z,102982.66
2023-02-08T23:05:04.804Z,102976.56
2023-02-08T23:07:33.234Z,102964.97
2023-02-08T23:10:01.717Z,102976.53
2023-02-08T23:12:30.635Z,102966.97
2023-02-08T23:14:59.036Z,102967.41
2023-02-08T23:17:27.347Z,102966.16
2023-02-08T23:19:55.765Z,102963.75
2023-02-08T23:22:23.789Z,102964.97
2023-02-08T23:24:52.202Z,102951.97
2023-02-08T23:27:20.205Z,102953.59
2023-02-08T23:29:48.728Z,102950.72
2023-02-08T23:32:16.808Z,102953.59
2023-02-08T23:34:45.244Z,102956.84
2023-02-08T23:37:13.209Z,102958.44
2023-02-08T23:39:41.683Z,102950.72
2023-02-08T23:42:25.624Z,102957.03
2023-02-08T23:44:58.776Z,102948.28
2023-02-08T23:47:28.737Z,102955.16
2023-02-08T23:49:57.158Z,102957.81
2023-02-08T23:52:25.215Z,102953.38
2023-02-08T23:54:53.650Z,102955.59
2023-02-08T23:57:21.639Z,102955.22
2023-02-08T23:59:50.178Z,102950.94
